Time;durP1;ratioP1;P1;durP2;ratioP2;P2;SDS_P1;SDS_P2;PMS_P1;PMS_P2;Temp;Humidity;BMP_temperature;BMP_pressure;BME280_temperature;BME280_humidity;BME280_pressure;Samples;Min_cycle;Max_cycle;Signal;HPM_P1;HPM_P2
2023/08/12 00:00:41;;;;;;;15.50;4.90;;;;;;;20.86;100.00;101435.13;5077632;28;20036;-70
2023/08/12 00:03:07;;;;;;;12.43;4.47;;;;;;;20.87;100.00;101438.69;5076546;28;20040;-70
2023/08/12 00:05:32;;;;;;;14.20;4.85;;;;;;;20.87;100.00;101434.03;5077383;28;20032;-69
2023/08/12 00:07:58;;;;;;;11.80;4.57;;;;;;;20.87;100.00;101441.44;5060199;28;20077;-69
2023/08/12 00:10:23;;;;;;;14.50;5.38;;;;;;;20.85;100.00;101427.97;5076591;28;20467;-70
2023/08/12 00:12:49;;;;;;;11.65;4.32;;;;;;;20.90;100.00;101429.97;5076181;28;20077;-69
2023/08/12 00:15:14;;;;;;;11.95;5.25;;;;;;;20.90;100.00;101426.41;5076051;28;20472;-69
2023/08/12 00:17:41;;;;;;;11.60;4.60;;;;;;;20.89;100.00;101420.09;5059395;28;20387;-70
2023/08/12 00:20:08;;;;;;;12.57;4.55;;;;;;;20.94;100.00;101430.31;5080144;28;20139;-70
2023/08/12 00:22:34;;;;;;;12.30;4.65;;;;;;;20.91;100.00;101431.63;5081848;28;20029;-69
2023/08/12 00:25:00;;;;;;;14.00;4.88;;;;;;;20.91;100.00;101428.06;5081187;28;20501;-69
2023/08/12 00:27:25;;;;;;;11.98;4.53;;;;;;;20.89;100.00;101433.78;5081080;28;20548;-69
2023/08/12 00:29:50;;;;;;;14.75;4.72;;;;;;;20.91;100.00;101434.38;5078389;28;20016;-69
2023/08/12 00:32:16;;;;;;;11.88;4.60;;;;;;;20.83;100.00;101432.06;5080331;28;20020;-69
2023/08/12 00:34:42;;;;;;;11.30;4.43;;;;;;;20.83;100.00;101430.16;5079045;28;20434;-69
2023/08/12 00:37:07;;;;;;;14.07;4.63;;;;;;;20.91;100.00;101430.81;5080709;28;20044;-70
2023/08/12 00:39:32;;;;;;;14.88;4.80;;;;;;;20.86;100.00;101428.81;5083267;28;20044;-70
2023/08/12 00:41:58;;;;;;;12.45;4.50;;;;;;;20.84;100.00;101420.88;5082162;28;20031;-69
2023/08/12 00:44:23;;;;;;;12.73;5.00;;;;;;;20.72;100.00;101417.41;5081699;28;20415;-69
2023/08/12 00:46:50;;;;;;;13.02;4.95;;;;;;;20.78;100.00;101424.59;5080058;28;20028;-69
2023/08/12 00:49:16;;;;;;;15.45;5.47;;;;;;;20.72;100.00;101413.84;5079409;28;20056;-69
2023/08/12 00:51:44;;;;;;;15.45;5.43;;;;;;;20.63;100.00;101424.41;5088768;28;20093;-70
2023/08/12 00:54:14;;;;;;;13.85;5.03;;;;;;;20.58;100.00;101406.00;5085373;28;20021;-69
2023/08/12 00:56:40;;;;;;;20.90;6.55;;;;;;;20.58;100.00;101422.41;5080310;28;20089;-69
2023/08/12 00:59:08;;;;;;;16.50;5.93;;;;;;;20.56;100.00;101407.31;5081432;28;20111;-69
2023/08/12 01:01:34;;;;;;;21.50;6.45;;;;;;;20.57;100.00;101411.75;5078494;28;20021;-68
2023/08/12 01:04:00;;;;;;;16.00;6.93;;;;;;;20.50;100.00;101408.31;5081238;28;20102;-69
2023/08/12 01:06:25;;;;;;;18.40;6.75;;;;;;;20.50;100.00;101419.25;5062941;28;20024;-69
2023/08/12 01:08:51;;;;;;;18.50;6.95;;;;;;;20.44;100.00;101412.88;5080868;28;20424;-69
2023/08/12 01:11:25;;;;;;;18.27;6.60;;;;;;;20.45;100.00;101416.44;5080947;28;20029;-69
2023/08/12 01:14:13;;;;;;;13.02;6.50;;;;;;;20.40;100.00;101409.00;5079501;28;20028;-71
2023/08/12 01:16:43;;;;;;;16.13;6.70;;;;;;;20.35;100.00;101408.91;5075543;28;20035;-68
2023/08/12 01:19:16;;;;;;;19.40;7.10;;;;;;;20.27;100.00;101395.66;5079565;28;20035;-69
2023/08/12 01:21:44;;;;;;;15.50;6.63;;;;;;;20.34;100.00;101399.06;5080366;28;20033;-69
2023/08/12 01:24:09;;;;;;;19.58;6.45;;;;;;;20.29;100.00;101393.50;5080808;28;20398;-68
2023/08/12 01:26:34;;;;;;;15.80;6.25;;;;;;;20.35;100.00;101403.44;5078738;28;20032;-69
2023/08/12 01:29:00;;;;;;;17.35;6.15;;;;;;;20.25;100.00;101392.34;5080320;28;20539;-68
2023/08/12 01:32:02;;;;;;;12.68;6.03;;;;;;;20.34;100.00;101407.25;5078550;28;20187;-68
2023/08/12 01:34:43;;;;;;;17.83;6.45;;;;;;;20.30;100.00;101395.19;5067754;28;20260;-69
2023/08/12 01:37:13;;;;;;;14.45;6.15;;;;;;;20.23;100.00;101380.81;5080483;28;20130;-69
2023/08/12 01:39:41;;;;;;;17.23;5.80;;;;;;;20.28;100.00;101405.50;5080896;28;20394;-68
2023/08/12 01:42:07;;;;;;;16.05;6.60;;;;;;;20.26;100.00;101402.19;5079252;28;20024;-68
2023/08/12 01:44:32;;;;;;;13.70;6.28;;;;;;;20.28;100.00;101408.25;5062730;28;20095;-69
2023/08/12 01:46:59;;;;;;;20.45;6.45;;;;;;;20.30;100.00;101414.31;5080740;28;20036;-69
2023/08/12 01:49:25;;;;;;;16.95;6.55;;;;;;;20.28;100.00;101394.59;5080956;28;20048;-68
2023/08/12 01:51:50;;;;;;;14.65;6.35;;;;;;;20.24;100.00;101404.38;5078909;28;20115;-68
2023/08/12 01:54:16;;;;;;;17.63;6.32;;;;;;;20.28;100.00;101397.31;5074911;28;20047;-69
2023/08/12 01:56:41;;;;;;;14.23;6.03;;;;;;;20.32;100.00;101396.56;5078311;28;20390;-68
2023/08/12 01:59:07;;;;;;;14.23;5.43;;;;;;;20.27;100.00;101401.13;5080640;28;20387;-71
2023/08/12 02:01:32;;;;;;;15.93;5.93;;;;;;;20.28;100.00;101389.13;5080343;28;20032;-69
2023/08/12 02:03:57;;;;;;;15.60;5.85;;;;;;;20.24;100.00;101382.50;5073631;28;20074;-68
2023/08/12 02:06:23;;;;;;;15.23;5.78;;;;;;;20.09;100.00;101362.03;5077623;28;20032;-68
2023/08/12 02:08:48;;;;;;;18.08;6.55;;;;;;;20.27;100.00;101390.19;5077299;28;20107;-69
2023/08/12 02:11:14;;;;;;;16.63;5.80;;;;;;;20.28;100.00;101386.38;5076941;28;20360;-69
2023/08/12 02:13:39;;;;;;;13.32;5.70;;;;;;;20.24;100.00;101383.31;5079660;28;20503;-68
2023/08/12 02:16:04;;;;;;;21.30;5.50;;;;;;;20.25;100.00;101375.94;5079784;28;20032;-68
2023/08/12 02:18:30;;;;;;;17.00;6.20;;;;;;;20.26;100.00;101383.88;5078138;28;20028;-69
2023/08/12 02:20:55;;;;;;;16.48;5.60;;;;;;;20.27;100.00;101382.00;5078722;28;20044;-69
2023/08/12 02:23:21;;;;;;;17.48;5.72;;;;;;;20.28;100.00;101394.59;5079253;28;20045;-70
2023/08/12 02:25:46;;;;;;;18.00;5.15;;;;;;;20.31;100.00;101394.09;5077799;28;20502;-69
2023/08/12 02:28:12;;;;;;;16.33;5.43;;;;;;;20.25;100.00;101384.97;5078683;28;20021;-68
2023/08/12 02:30:37;;;;;;;15.38;6.40;;;;;;;20.09;100.00;101356.56;5077577;28;20066;-69
2023/08/12 02:33:03;;;;;;;11.85;5.70;;;;;;;20.26;100.00;101380.31;5081291;28;20032;-69
2023/08/12 02:35:28;;;;;;;16.52;5.68;;;;;;;20.23;100.00;101375.34;5066261;28;20043;-68
2023/08/12 02:37:54;;;;;;;14.82;5.55;;;;;;;20.14;100.00;101355.84;5081251;28;20025;-68
2023/08/12 02:40:19;;;;;;;15.73;5.38;;;;;;;20.26;100.00;101380.31;5081603;28;20382;-68
2023/08/12 02:42:44;;;;;;;18.85;5.72;;;;;;;20.28;100.00;101372.72;5079746;28;20185;-69
2023/08/12 02:45:10;;;;;;;15.30;5.15;;;;;;;20.27;100.00;101373.81;5081106;28;20571;-70
2023/08/12 02:47:35;;;;;;;19.90;6.20;;;;;;;20.27;100.00;101371.06;5081050;28;20028;-69
2023/08/12 02:50:02;;;;;;;15.65;5.72;;;;;;;20.29;100.00;101382.56;5076964;28;20058;-68
2023/08/12 02:52:27;;;;;;;16.23;5.75;;;;;;;20.16;100.00;101359.13;5079232;28;20795;-71
2023/08/12 02:54:53;;;;;;;19.33;5.50;;;;;;;20.26;100.00;101380.31;5070498;28;20783;-68
2023/08/12 02:57:18;;;;;;;18.48;5.45;;;;;;;20.30;100.00;101386.97;5080471;28;20032;-69
2023/08/12 02:59:43;;;;;;;21.10;5.15;;;;;;;20.33;100.00;101381.84;5078796;28;20028;-69
2023/08/12 03:02:09;;;;;;;19.73;6.05;;;;;;;20.32;100.00;101384.81;5078890;28;20031;-69
2023/08/12 03:04:34;;;;;;;13.02;5.05;;;;;;;20.34;100.00;101374.47;5077721;28;20086;-70
2023/08/12 03:07:00;;;;;;;18.52;6.13;;;;;;;20.34;100.00;101380.75;5077432;28;20123;-69
2023/08/12 03:09:25;;;;;;;16.88;5.70;;;;;;;20.37;100.00;101376.69;5077805;28;20045;-69
2023/08/12 03:11:50;;;;;;;18.10;5.57;;;;;;;20.24;100.00;101358.72;5077375;28;20025;-69
2023/08/12 03:14:16;;;;;;;16.25;5.45;;;;;;;20.36;100.00;101372.28;5077646;28;20059;-68
2023/08/12 03:16:41;;;;;;;16.02;5.47;;;;;;;20.25;100.00;101354.09;5059967;28;20055;-69
2023/08/12 03:19:07;;;;;;;18.63;5.95;;;;;;;20.35;100.00;101367.91;5077419;28;20260;-68
2023/08/12 03:21:32;;;;;;;15.52;5.55;;;;;;;20.31;100.00;101361.28;5076939;28;20422;-69
2023/08/12 03:23:57;;;;;;;19.48;5.88;;;;;;;20.35;100.00;101366.00;5076777;28;20058;-69
2023/08/12 03:26:23;;;;;;;18.25;5.63;;;;;;;20.33;100.00;101365.44;5076938;28;20033;-69
2023/08/12 03:28:48;;;;;;;18.95;5.15;;;;;;;20.22;100.00;101344.47;5076513;28;20534;-69
2023/08/12 03:31:13;;;;;;;13.18;5.53;;;;;;;20.31;100.00;101364.84;5072713;28;20087;-69
2023/08/12 03:33:39;;;;;;;15.85;5.40;;;;;;;20.32;100.00;101369.22;5077836;28;20045;-69
2023/08/12 03:36:04;;;;;;;22.00;5.97;;;;;;;20.33;100.00;101370.91;5080754;28;20103;-73
2023/08/12 03:38:30;;;;;;;18.48;5.05;;;;;;;20.34;100.00;101377.19;5075525;28;20028;-72
2023/08/12 03:40:55;;;;;;;15.88;5.88;;;;;;;20.22;100.00;101358.13;5080002;28;20111;-69
2023/08/12 03:43:21;;;;;;;21.65;5.22;;;;;;;20.32;100.00;101361.03;5081448;28;20103;-72
2023/08/12 03:45:47;;;;;;;13.43;4.65;;;;;;;20.17;100.00;101345.25;5080864;28;20052;-69
2023/08/12 03:48:12;;;;;;;16.25;4.97;;;;;;;20.26;100.00;101358.47;5081181;28;20035;-69
2023/08/12 03:50:39;;;;;;;15.02;5.50;;;;;;;20.24;100.00;101349.72;5079471;28;20498;-69
2023/08/12 03:53:05;;;;;;;19.08;5.00;;;;;;;20.14;100.00;101345.75;5077107;28;20047;-71
2023/08/12 03:55:32;;;;;;;18.63;5.10;;;;;;;20.25;100.00;101356.81;5081912;28;20539;-70
2023/08/12 03:57:58;;;;;;;17.88;5.32;;;;;;;20.25;100.00;101363.09;5064387;28;20032;-68
2023/08/12 04:00:23;;;;;;;17.35;5.07;;;;;;;20.23;100.00;101361.69;5064976;28;20040;-69
2023/08/12 04:02:49;;;;;;;15.82;4.95;;;;;;;20.23;100.00;101354.34;5081698;28;20210;-70
2023/08/12 04:05:14;;;;;;;20.10;4.90;;;;;;;20.23;100.00;101351.63;5082400;28;20075;-77
2023/08/12 04:07:39;;;;;;;15.60;5.13;;;;;;;20.25;100.00;101352.19;5082521;28;20074;-79
2023/08/12 04:10:05;;;;;;;16.60;4.88;;;;;;;20.27;100.00;101346.47;5082942;28;20421;-77
2023/08/12 04:12:31;;;;;;;15.73;4.72;;;;;;;20.25;100.00;101340.41;5081011;28;20021;-70
2023/08/12 04:14:56;;;;;;;13.23;4.85;;;;;;;20.27;100.00;101350.03;5080770;28;20055;-69
2023/08/12 04:17:21;;;;;;;16.15;5.38;;;;;;;20.29;100.00;101355.22;5078636;28;20100;-69
2023/08/12 04:19:47;;;;;;;18.73;5.45;;;;;;;20.25;100.00;101354.09;5081308;28;20479;-69
2023/08/12 04:22:12;;;;;;;14.55;4.53;;;;;;;20.31;100.00;101358.56;5078651;28;20092;-69
2023/08/12 04:24:38;;;;;;;18.23;5.05;;;;;;;20.32;100.00;101349.28;5062015;28;20032;-69
2023/08/12 04:27:03;;;;;;;13.07;4.90;;;;;;;20.34;100.00;101338.94;5080115;28;20031;-69
2023/08/12 04:29:29;;;;;;;20.55;4.88;;;;;;;20.34;100.00;101349.84;5080118;28;20028;-69
2023/08/12 04:31:54;;;;;;;14.05;4.75;;;;;;;20.28;100.00;101335.28;5078675;28;20094;-69
2023/08/12 04:34:20;;;;;;;17.55;4.70;;;;;;;20.36;100.00;101347.69;5080038;28;20491;-68
2023/08/12 04:36:45;;;;;;;19.27;5.40;;;;;;;20.32;100.00;101341.91;5078136;28;20427;-68
2023/08/12 04:39:10;;;;;;;15.63;4.93;;;;;;;20.32;100.00;101347.38;5076944;28;20092;-69
2023/08/12 04:41:38;;;;;;;18.17;5.13;;;;;;;20.32;100.00;101358.28;5076834;28;20043;-68
2023/08/12 04:44:04;;;;;;;18.00;4.75;;;;;;;20.35;100.00;101351.50;5075061;28;20032;-69
2023/08/12 04:46:30;;;;;;;15.05;4.80;;;;;;;20.29;100.00;101358.78;5076562;28;20107;-69
2023/08/12 04:48:55;;;;;;;17.50;5.00;;;;;;;20.21;100.00;101322.88;5076833;28;20090;-70
2023/08/12 04:51:20;;;;;;;12.55;4.78;;;;;;;20.40;100.00;101349.69;5079670;28;20017;-71
2023/08/12 04:53:46;;;;;;;16.02;4.65;;;;;;;20.42;100.00;101352.97;5075934;28;20395;-70
2023/08/12 04:56:11;;;;;;;15.48;5.10;;;;;;;20.43;100.00;101345.63;5076557;28;20207;-69
2023/08/12 04:58:37;;;;;;;13.38;4.63;;;;;;;20.45;100.00;101348.09;5076486;28;20620;-69
2023/08/12 05:01:02;;;;;;;18.55;4.97;;;;;;;20.31;100.00;101332.06;5076042;28;20016;-69
2023/08/12 05:03:28;;;;;;;16.00;5.43;;;;;;;20.38;100.00;101349.09;5078493;28;20028;-69
2023/08/12 05:05:53;;;;;;;12.60;4.68;;;;;;;20.38;100.00;101351.00;5082113;28;20095;-69
2023/08/12 05:08:19;;;;;;;15.95;5.13;;;;;;;20.39;100.00;101345.28;5084719;28;20024;-72
2023/08/12 05:10:48;;;;;;;15.73;4.43;;;;;;;20.48;100.00;101351.16;5082438;28;20025;-68
2023/08/12 05:13:13;;;;;;;20.00;4.70;;;;;;;20.49;100.00;101361.00;5083374;28;20104;-68
2023/08/12 05:15:39;;;;;;;15.40;4.30;;;;;;;20.49;100.00;101360.16;5083222;28;20047;-69
2023/08/12 05:18:24;;;;;;;17.50;4.60;;;;;;;20.52;100.00;101362.44;5061471;28;20033;-69
2023/08/12 05:20:52;;;;;;;11.95;4.50;;;;;;;20.48;100.00;101355.78;5046241;28;20040;-69
2023/08/12 05:23:17;;;;;;;14.73;4.95;;;;;;;20.35;100.00;101335.09;5061550;28;20040;-69
2023/08/12 05:25:43;;;;;;;18.40;5.20;;;;;;;20.38;100.00;101362.75;5061470;28;20075;-69
2023/08/12 05:28:08;;;;;;;16.48;4.80;;;;;;;20.45;100.00;101362.59;5060993;28;20082;-69
2023/08/12 05:30:34;;;;;;;17.80;5.00;;;;;;;20.47;100.00;101363.16;5060853;28;20172;-72
2023/08/12 05:32:59;;;;;;;17.67;4.82;;;;;;;20.50;100.00;101372.78;5043811;28;20036;-69
2023/08/12 05:35:25;;;;;;;15.90;5.03;;;;;;;20.48;100.00;101372.19;5043397;28;20037;-69
2023/08/12 05:37:50;;;;;;;19.17;4.93;;;;;;;20.48;100.00;101378.47;5028145;28;20041;-69
2023/08/12 05:40:16;;;;;;;16.63;4.68;;;;;;;20.45;100.00;101365.31;5038728;28;20029;-69
2023/08/12 05:42:41;;;;;;;13.10;5.60;;;;;;;20.48;100.00;101370.28;5054829;28;20028;-69
2023/08/12 05:45:07;;;;;;;13.10;4.70;;;;;;;20.50;100.00;101365.41;5053293;28;20060;-69
2023/08/12 05:47:32;;;;;;;16.17;4.80;;;;;;;20.54;100.00;101361.13;5053734;28;20428;-69
2023/08/12 05:49:58;;;;;;;17.80;5.05;;;;;;;20.52;100.00;101374.19;5069745;28;20097;-69
2023/08/12 05:52:23;;;;;;;18.95;5.07;;;;;;;20.52;100.00;101363.25;5075188;28;20050;-69
2023/08/12 05:54:49;;;;;;;15.48;4.75;;;;;;;20.55;100.00;101354.56;5074413;28;20514;-69
2023/08/12 05:57:14;;;;;;;21.85;5.22;;;;;;;20.52;100.00;101352.31;5076884;28;20035;-69
2023/08/12 05:59:39;;;;;;;16.80;5.85;;;;;;;20.58;100.00;101353.22;5075587;28;20482;-68
2023/08/12 06:02:06;;;;;;;17.35;5.78;;;;;;;20.49;100.00;101335.56;5076474;28;20052;-70
2023/08/12 06:04:31;;;;;;;14.15;5.18;;;;;;;20.59;100.00;101352.97;5059986;28;20036;-68
2023/08/12 06:06:57;;;;;;;18.02;5.03;;;;;;;20.59;100.00;101365.81;5076690;28;20058;-69
2023/08/12 06:09:22;;;;;;;17.23;4.90;;;;;;;20.62;100.00;101363.41;5075851;28;20028;-69
2023/08/12 06:11:47;;;;;;;14.98;5.22;;;;;;;20.54;100.00;101347.44;5078730;28;20063;-69
2023/08/12 06:14:13;;;;;;;14.50;5.20;;;;;;;20.62;100.00;101351.63;5077661;28;20467;-70
2023/08/12 06:16:39;;;;;;;16.45;5.28;;;;;;;20.60;100.00;101357.38;5077428;28;20169;-70
2023/08/12 06:19:04;;;;;;;15.93;5.30;;;;;;;20.70;100.00;101353.13;5079152;28;20061;-68
2023/08/12 06:21:30;;;;;;;14.52;5.22;;;;;;;20.77;100.00;101364.69;5079254;28;20024;-70
2023/08/12 06:23:55;;;;;;;15.20;5.22;;;;;;;20.82;100.00;101362.84;5079124;28;20142;-69
2023/08/12 06:26:21;;;;;;;16.40;5.70;;;;;;;20.88;100.00;101363.75;5060874;28;20035;-69
2023/08/12 06:28:46;;;;;;;20.65;6.00;;;;;;;20.90;100.00;101358.03;5078887;28;20052;-69
2023/08/12 06:31:12;;;;;;;15.90;5.72;;;;;;;20.93;100.00;101361.09;5078854;28;20032;-69
2023/08/12 06:33:37;;;;;;;18.88;5.55;;;;;;;20.89;100.00;101338.03;5077612;28;20487;-69
2023/08/12 06:36:03;;;;;;;16.90;5.32;;;;;;;20.97;100.00;101359.50;5078515;28;20016;-71
2023/08/12 06:38:28;;;;;;;14.18;4.93;;;;;;;21.00;100.00;101367.19;5079610;28;20077;-69
2023/08/12 06:40:54;;;;;;;16.65;5.60;;;;;;;21.06;100.00;101368.09;5078505;28;20028;-69
2023/08/12 06:43:20;;;;;;;11.82;5.00;;;;;;;21.05;100.00;101369.16;5077334;28;20032;-70
2023/08/12 06:45:45;;;;;;;18.77;5.78;;;;;;;20.98;100.00;101360.31;5078478;28;20033;-69
2023/08/12 06:48:10;;;;;;;15.13;5.00;;;;;;;21.14;100.00;101366.78;5077447;28;20025;-70
2023/08/12 06:50:36;;;;;;;13.65;5.28;;;;;;;21.30;100.00;101374.09;5077578;28;20495;-70
2023/08/12 06:53:02;;;;;;;15.90;5.20;;;;;;;21.47;100.00;101374.84;5077952;28;20105;-69
2023/08/12 06:55:27;;;;;;;17.02;5.18;;;;;;;21.62;100.00;101373.34;5066919;28;20062;-69
2023/08/12 06:57:53;;;;;;;12.40;5.18;;;;;;;21.52;100.00;101355.75;5079144;28;20057;-70
2023/08/12 07:00:18;;;;;;;16.30;5.35;;;;;;;21.73;100.00;101367.72;5078569;28;20376;-69
2023/08/12 07:02:43;;;;;;;12.75;5.00;;;;;;;21.89;100.00;101365.94;5078050;28;20024;-69
2023/08/12 07:05:09;;;;;;;13.98;4.53;;;;;;;21.98;100.00;101358.88;5078377;28;20028;-69
2023/08/12 07:07:35;;;;;;;15.23;5.20;;;;;;;22.21;100.00;101387.88;5077341;28;20549;-69
2023/08/12 07:10:00;;;;;;;15.52;4.68;;;;;;;22.32;100.00;101397.00;5077116;28;20028;-70
2023/08/12 07:12:26;;;;;;;15.35;4.80;;;;;;;22.52;100.00;101391.66;5060230;28;20074;-70
2023/08/12 07:14:52;;;;;;;12.63;4.80;;;;;;;22.55;100.00;101392.19;5078606;28;20028;-69
2023/08/12 07:17:17;;;;;;;15.88;5.13;;;;;;;22.71;100.00;101383.81;5077073;28;20115;-69
2023/08/12 07:19:42;;;;;;;12.20;5.00;;;;;;;22.91;100.00;101393.22;5076720;28;20048;-70
2023/08/12 07:22:08;;;;;;;14.93;4.90;;;;;;;23.05;100.00;101391.69;5076592;28;20059;-69
2023/08/12 07:24:33;;;;;;;11.73;5.20;;;;;;;23.19;100.00;101368.13;5060165;28;20476;-69
2023/08/12 07:26:58;;;;;;;10.13;5.68;;;;;;;23.32;100.00;101358.56;5076531;28;20060;-69
2023/08/12 07:29:24;;;;;;;14.45;5.68;;;;;;;23.30;100.00;101347.00;5072901;28;20365;-70
2023/08/12 07:31:49;;;;;;;10.10;5.43;;;;;;;23.47;100.00;101362.41;5058260;28;20024;-69
2023/08/12 07:34:15;;;;;;;13.60;4.95;;;;;;;23.63;100.00;101384.16;5060179;28;20174;-70
2023/08/12 07:36:41;;;;;;;12.77;5.35;;;;;;;23.81;100.00;101387.50;5091873;28;20094;-70
2023/08/12 07:39:07;;;;;;;14.30;5.18;;;;;;;23.74;100.00;101373.19;5073187;28;20036;-69
2023/08/12 07:41:32;;;;;;;10.90;5.03;;;;;;;23.94;100.00;101378.72;5074421;28;20032;-70
2023/08/12 07:43:57;;;;;;;11.27;5.40;;;;;;;24.03;100.00;101387.22;5076929;28;20040;-70
2023/08/12 07:46:23;;;;;;;12.48;5.25;;;;;;;23.99;100.00;101381.47;5060565;28;20037;-72
2023/08/12 07:48:49;;;;;;;12.25;5.65;;;;;;;24.12;100.00;101372.66;5086707;28;20047;-70
2023/08/12 07:51:14;;;;;;;10.48;5.25;;;;;;;24.23;100.00;101373.47;5080510;28;20391;-70
2023/08/12 07:53:40;;;;;;;15.63;5.13;;;;;;;24.42;99.50;101381.19;5077365;28;20024;-69
2023/08/12 07:56:05;;;;;;;13.02;5.00;;;;;;;24.36;99.46;101375.63;5076253;28;20084;-72
2023/08/12 07:58:31;;;;;;;7.93;4.80;;;;;;;24.45;99.42;101378.69;5077356;28;20107;-70
2023/08/12 08:00:56;;;;;;;7.75;4.10;;;;;;;24.56;98.69;101385.00;5075935;28;20502;-70
2023/08/12 08:03:21;;;;;;;8.23;4.78;;;;;;;24.68;97.21;101376.44;5077355;28;20024;-70
2023/08/12 08:05:47;;;;;;;10.82;4.82;;;;;;;24.63;97.17;101376.44;5077192;28;20221;-70
2023/08/12 08:08:13;;;;;;;8.35;4.45;;;;;;;24.90;96.83;101395.34;5077992;28;20141;-72
2023/08/12 08:10:39;;;;;;;9.23;4.55;;;;;;;24.86;96.21;101367.56;5077543;28;20024;-71
2023/08/12 08:13:04;;;;;;;11.30;4.80;;;;;;;24.85;95.67;101371.41;5059885;28;20079;-70
2023/08/12 08:15:29;;;;;;;10.70;4.93;;;;;;;24.95;94.82;101395.34;5078079;28;20028;-70
2023/08/12 08:17:55;;;;;;;10.38;4.15;;;;;;;25.02;94.50;101395.84;5078300;28;20036;-69
2023/08/12 08:20:20;;;;;;;6.75;4.47;;;;;;;25.02;93.74;101409.63;5077218;28;20067;-70
2023/08/12 08:22:47;;;;;;;10.57;4.43;;;;;;;25.05;93.04;101409.88;5060273;28;20032;-70
2023/08/12 08:25:13;;;;;;;7.47;3.63;;;;;;;25.18;92.66;101411.25;5076810;28;20058;-70
2023/08/12 08:27:38;;;;;;;9.85;4.10;;;;;;;25.20;92.77;101411.78;5078147;28;20036;-70
2023/08/12 08:30:06;;;;;;;7.38;3.88;;;;;;;25.25;91.56;101419.19;5078372;28;20088;-70
2023/08/12 08:32:31;;;;;;;7.95;3.78;;;;;;;25.13;90.97;101408.50;5078722;28;20031;-70
2023/08/12 08:34:56;;;;;;;9.50;4.40;;;;;;;25.10;90.68;101403.53;5077450;28;20029;-69
2023/08/12 08:37:22;;;;;;;9.30;4.75;;;;;;;25.00;90.17;101401.66;5077875;28;20097;-70
2023/08/12 08:39:47;;;;;;;6.80;4.40;;;;;;;25.14;89.23;101406.59;5077413;28;20133;-70
2023/08/12 08:42:15;;;;;;;8.00;4.55;;;;;;;25.29;89.01;101409.25;5064070;28;20028;-69
2023/08/12 08:44:42;;;;;;;10.23;5.15;;;;;;;25.19;88.97;101401.84;5082013;28;20115;-70
2023/08/12 08:47:08;;;;;;;10.15;5.10;;;;;;;25.08;89.73;101405.75;5082663;28;20021;-70
2023/08/12 08:49:35;;;;;;;9.88;5.13;;;;;;;24.74;90.84;101411.09;5079164;28;20053;-70
2023/08/12 08:52:01;;;;;;;8.65;4.80;;;;;;;24.55;91.51;101421.88;5080843;28;20027;-69
2023/08/12 08:54:28;;;;;;;11.32;4.85;;;;;;;24.36;92.14;101405.91;5079335;28;20029;-70
2023/08/12 08:56:54;;;;;;;7.18;4.70;;;;;;;24.56;91.64;101407.81;5080448;28;20024;-71
2023/08/12 08:59:21;;;;;;;9.20;5.60;;;;;;;24.44;91.65;101421.06;5079092;28;20035;-70
2023/08/12 09:01:48;;;;;;;10.82;5.93;;;;;;;24.35;92.28;101414.44;5083183;28;20028;-77
2023/08/12 09:04:16;;;;;;;8.70;5.30;;;;;;;24.44;92.03;101404.56;5086232;28;20020;-73
2023/08/12 09:06:43;;;;;;;12.63;5.10;;;;;;;24.62;91.86;101405.88;5085218;28;20096;-77
2023/08/12 09:09:12;;;;;;;10.00;5.18;;;;;;;24.75;91.17;101408.06;5083112;28;20097;-69
2023/08/12 09:11:40;;;;;;;7.22;4.55;;;;;;;24.88;90.70;101403.06;5080331;28;20028;-70
2023/08/12 09:14:06;;;;;;;9.48;5.13;;;;;;;25.21;89.10;101398.84;5082074;28;20333;-70
2023/08/12 09:16:32;;;;;;;8.07;4.30;;;;;;;25.13;87.00;101400.22;5083502;28;20055;-70
2023/08/12 09:18:58;;;;;;;7.50;4.70;;;;;;;25.30;86.86;101395.22;5078296;28;20487;-70
2023/08/12 09:21:23;;;;;;;7.13;4.03;;;;;;;25.53;85.96;101379.91;5079970;28;20021;-69
2023/08/12 09:23:49;;;;;;;9.10;4.13;;;;;;;25.61;85.20;101395.03;5079321;28;20046;-69
2023/08/12 09:26:19;;;;;;;7.40;3.42;;;;;;;25.29;81.88;101399.06;5083265;28;20387;-70
2023/08/12 09:28:45;;;;;;;7.70;3.35;;;;;;;25.24;81.98;101396.34;5084151;28;20360;-70
2023/08/12 09:31:28;;;;;;;8.70;3.78;;;;;;;25.47;82.71;101397.59;5082650;28;20035;-70
2023/08/12 09:33:58;;;;;;;8.55;3.83;;;;;;;25.41;81.77;101400.66;5082358;28;20028;-71
2023/08/12 09:36:23;;;;;;;7.35;3.53;;;;;;;25.40;82.24;101396.28;5082576;28;20043;-71
2023/08/12 09:38:49;;;;;;;9.35;3.70;;;;;;;25.24;82.63;101390.00;5083586;28;20033;-70
2023/08/12 09:41:15;;;;;;;6.97;3.40;;;;;;;25.19;82.26;101388.09;5083635;28;20024;-70
2023/08/12 09:43:42;;;;;;;6.82;3.00;;;;;;;25.20;80.92;101394.41;5083683;28;20017;-70
2023/08/12 09:46:12;;;;;;;6.60;3.13;;;;;;;25.07;82.13;101402.19;5081508;28;20027;-70
2023/08/12 09:48:37;;;;;;;8.15;3.63;;;;;;;25.20;82.04;101402.69;5078573;28;20036;-70
2023/08/12 09:51:03;;;;;;;8.23;3.65;;;;;;;25.25;82.33;101395.22;5075208;28;20028;-69
2023/08/12 09:53:29;;;;;;;8.10;3.50;;;;;;;25.40;82.99;101404.53;5076632;28;20438;-69
2023/08/12 09:56:01;;;;;;;7.75;3.78;;;;;;;25.44;82.93;101400.09;5076949;28;20032;-69
2023/08/12 09:58:29;;;;;;;7.55;4.20;;;;;;;25.31;83.46;101396.84;5085273;28;20027;-71
2023/08/12 10:00:55;;;;;;;7.43;4.07;;;;;;;25.28;84.15;101400.16;5087461;28;20085;-75
2023/08/12 10:03:23;;;;;;;9.75;3.70;;;;;;;25.35;83.85;101396.28;5063563;28;20029;-69
2023/08/12 10:05:49;;;;;;;9.50;3.85;;;;;;;25.22;84.63;101393.03;5078938;28;20515;-70
2023/08/12 10:08:16;;;;;;;7.78;3.33;;;;;;;25.31;84.10;101391.34;5077606;28;20298;-69
2023/08/12 10:10:42;;;;;;;8.50;3.33;;;;;;;25.42;83.56;101388.53;5078521;28;20096;-68
2023/08/12 10:13:10;;;;;;;8.98;4.00;;;;;;;25.59;83.27;101386.19;5078455;28;20082;-70
2023/08/12 10:15:36;;;;;;;7.95;3.40;;;;;;;25.84;82.94;101390.75;5077227;28;20482;-70
2023/08/12 10:18:03;;;;;;;7.90;3.80;;;;;;;25.94;82.21;101387.91;5078332;28;20028;-69
2023/08/12 10:20:30;;;;;;;8.18;3.80;;;;;;;25.85;82.84;101394.31;5078507;28;20391;-70
2023/08/12 10:22:56;;;;;;;10.95;3.53;;;;;;;25.92;81.46;101389.31;5078884;28;20067;-70
2023/08/12 10:25:24;;;;;;;10.15;4.00;;;;;;;25.75;81.71;101396.00;5077392;28;20025;-70
2023/08/12 10:27:50;;;;;;;8.68;3.47;;;;;;;25.82;81.61;101384.69;5078368;28;20062;-70
2023/08/12 10:30:16;;;;;;;7.88;3.67;;;;;;;25.88;80.80;101369.75;5076980;28;20032;-70
2023/08/12 10:32:42;;;;;;;7.43;3.00;;;;;;;25.83;80.20;101366.22;5077825;28;20066;-70
2023/08/12 10:35:08;;;;;;;8.27;3.45;;;;;;;25.76;79.56;101370.13;5077931;28;20451;-70
2023/08/12 10:37:34;;;;;;;7.50;3.38;;;;;;;25.90;78.30;101388.78;5059874;28;20735;-69
2023/08/12 10:40:10;;;;;;;5.18;2.78;;;;;;;26.09;77.73;101386.13;5078306;28;20028;-70
2023/08/12 10:42:43;;;;;;;8.20;3.60;;;;;;;26.15;77.18;101383.03;5076727;28;20028;-70
2023/08/12 10:45:12;;;;;;;6.68;3.25;;;;;;;26.20;76.73;101395.97;5055454;28;20025;-70
2023/08/12 10:47:44;;;;;;;6.88;3.22;;;;;;;26.07;76.97;101393.88;5077452;28;20032;-70
2023/08/12 10:50:25;;;;;;;9.27;3.58;;;;;;;26.36;75.66;101388.38;5064448;28;20048;-69
2023/08/12 10:52:52;;;;;;;9.50;3.63;;;;;;;26.35;74.94;101375.69;5081303;28;20033;-70
2023/08/12 10:55:27;;;;;;;7.18;3.42;;;;;;;25.98;75.06;101394.47;5079306;28;20021;-69
2023/08/12 10:57:55;;;;;;;6.15;2.47;;;;;;;26.09;74.45;101384.19;5078521;28;20028;-72
2023/08/12 11:00:28;;;;;;;8.68;2.92;;;;;;;26.02;73.56;101380.94;5068379;28;20029;-71
2023/08/12 11:02:57;;;;;;;8.48;2.83;;;;;;;26.01;74.50;101384.81;5082410;28;20043;-69
2023/08/12 11:05:24;;;;;;;5.85;2.70;;;;;;;25.93;74.44;101379.94;5080529;28;20031;-70
2023/08/12 11:08:03;;;;;;;7.57;3.80;;;;;;;26.06;73.81;101384.78;5080555;28;20028;-71
2023/08/12 11:10:31;;;;;;;10.40;3.60;;;;;;;26.10;75.03;101380.34;5080672;28;20047;-69